createdAt,value
2019-06-10T00:01:11.948Z,20.01
2019-06-10T00:03:45.410Z,20.04
2019-06-10T00:06:20.812Z,20.05
2019-06-10T00:08:53.628Z,20.03
2019-06-10T00:11:26.866Z,20.04
2019-06-10T00:14:02.442Z,20.03
2019-06-10T00:16:34.966Z,20.04
2019-06-10T00:19:10.144Z,20.03
2019-06-10T00:21:42.995Z,20.01
2019-06-10T00:24:17.149Z,20.01
2019-06-10T00:26:51.020Z,20.04
2019-06-10T00:29:25.533Z,20.03
2019-06-10T00:32:01.728Z,20.00
2019-06-10T00:34:35.094Z,20.04
2019-06-10T00:37:10.308Z,20.03
2019-06-10T00:39:43.274Z,20.01
2019-06-10T00:42:16.514Z,20.03
2019-06-10T00:44:50.901Z,20.01
2019-06-10T00:47:24.177Z,20.03
2019-06-10T00:49:57.445Z,20.01
2019-06-10T00:52:30.922Z,20.03
2019-06-10T00:55:04.904Z,20.01
2019-06-10T00:57:41.705Z,20.00
2019-06-10T01:00:25.212Z,19.99
2019-06-10T01:02:51.773Z,19.99
2019-06-10T01:05:25.094Z,19.97
2019-06-10T01:07:58.442Z,19.99
2019-06-10T01:10:32.182Z,20.00
2019-06-10T01:13:05.348Z,19.99
2019-06-10T01:15:41.670Z,19.99
2019-06-10T01:18:32.024Z,19.96
2019-06-10T01:20:51.577Z,19.97
2019-06-10T01:23:24.387Z,19.96
2019-06-10T01:25:57.692Z,19.96
2019-06-10T01:28:31.403Z,19.94
2019-06-10T01:31:08.524Z,19.94
2019-06-10T01:33:41.113Z,19.93
2019-06-10T01:36:16.450Z,19.94
2019-06-10T01:38:51.187Z,19.94
2019-06-10T01:41:24.438Z,19.91
2019-06-10T01:43:57.762Z,19.93
2019-06-10T01:46:31.630Z,19.91
2019-06-10T01:49:05.000Z,19.88
2019-06-10T01:51:38.221Z,19.90
2019-06-10T01:54:12.391Z,19.90
2019-06-10T01:56:46.562Z,19.87
2019-06-10T01:59:21.940Z,19.88
2019-06-10T02:02:00.981Z,19.88
2019-06-10T02:04:34.587Z,19.87
2019-06-10T02:07:09.213Z,19.88
2019-06-10T02:09:42.896Z,19.88
2019-06-10T02:12:18.754Z,19.88
2019-06-10T02:14:51.125Z,19.86
2019-06-10T02:17:24.483Z,19.87
2019-06-10T02:19:57.850Z,19.84
2019-06-10T02:22:32.097Z,19.86
2019-06-10T02:25:05.680Z,19.86
2019-06-10T02:27:41.347Z,19.86
2019-06-10T02:30:26.316Z,19.84
2019-06-10T02:32:52.131Z,19.86
2019-06-10T02:35:30.446Z,19.84
2019-06-10T02:37:58.364Z,19.83
2019-06-10T02:40:35.773Z,19.83
2019-06-10T02:43:07.704Z,19.79
2019-06-10T02:45:44.207Z,19.79
2019-06-10T02:48:19.665Z,19.77
2019-06-10T02:51:08.312Z,19.76
2019-06-10T02:53:43.490Z,19.73
2019-06-10T02:56:17.721Z,19.72
2019-06-10T02:58:53.501Z,19.70
2019-06-10T03:01:31.884Z,19.69
2019-06-10T03:04:04.314Z,19.66
2019-06-10T03:06:39.986Z,19.65
2019-06-10T03:09:13.794Z,19.65
2019-06-10T03:11:45.724Z,19.62
2019-06-10T03:14:19.778Z,19.62
2019-06-10T03:16:57.635Z,19.62
2019-06-10T03:19:45.812Z,19.62
2019-06-10T03:22:05.602Z,19.62
2019-06-10T03:24:38.658Z,19.63
2019-06-10T03:27:12.638Z,19.62
2019-06-10T03:29:45.936Z,19.63
2019-06-10T03:32:20.144Z,19.63
2019-06-10T03:34:54.997Z,19.63
2019-06-10T03:37:28.353Z,19.63
2019-06-10T03:40:02.482Z,19.65
2019-06-10T03:42:36.218Z,19.66
2019-06-10T03:45:12.447Z,19.66
2019-06-10T03:47:45.035Z,19.66
2019-06-10T03:50:19.190Z,19.67
2019-06-10T03:52:52.528Z,19.70
2019-06-10T03:55:27.927Z,19.70
2019-06-10T03:58:02.225Z,19.70
2019-06-10T04:00:37.097Z,19.72
2019-06-10T04:03:12.121Z,19.72
2019-06-10T04:05:46.482Z,19.73
2019-06-10T04:08:22.030Z,19.73
2019-06-10T04:10:54.419Z,19.74
2019-06-10T04:13:28.470Z,19.74
2019-06-10T04:16:02.380Z,19.76
2019-06-10T04:18:35.971Z,19.77
2019-06-10T04:21:09.149Z,19.80
2019-06-10T04:23:42.641Z,19.80
2019-06-10T04:26:17.563Z,19.79
2019-06-10T04:28:53.063Z,19.84
2019-06-10T04:31:26.873Z,19.84
2019-06-10T04:34:02.941Z,19.84
2019-06-10T04:36:35.377Z,19.87
2019-06-10T04:39:09.162Z,19.87
2019-06-10T04:41:42.785Z,19.88
2019-06-10T04:44:16.039Z,19.91
2019-06-10T04:46:49.142Z,19.90
2019-06-10T04:49:25.088Z,19.93
2019-06-10T04:51:57.156Z,19.94
2019-06-10T04:54:30.460Z,19.96
2019-06-10T04:57:03.926Z,19.96
2019-06-10T04:59:38.411Z,19.96
2019-06-10T05:02:12.880Z,19.97
2019-06-10T05:04:46.254Z,20.00
2019-06-10T05:07:19.530Z,19.99
2019-06-10T05:09:52.732Z,20.01
2019-06-10T05:12:26.771Z,20.04
2019-06-10T05:15:03.282Z,20.05
2019-06-10T05:17:35.655Z,20.14
2019-06-10T05:20:09.503Z,20.18
2019-06-10T05:22:42.708Z,20.21
2019-06-10T05:25:17.032Z,20.28
2019-06-10T05:27:52.220Z,20.33
2019-06-10T05:30:29.107Z,20.38
2019-06-10T05:33:03.073Z,20.45
2019-06-10T05:35:43.630Z,20.48
2019-06-10T05:38:18.733Z,20.53
2019-06-10T05:40:52.219Z,20.59
2019-06-10T05:43:26.396Z,20.63
2019-06-10T05:46:02.589Z,20.72
2019-06-10T05:48:35.185Z,20.79
2019-06-10T05:51:08.650Z,20.84
2019-06-10T05:53:42.735Z,20.89
2019-06-10T05:56:16.925Z,20.93
2019-06-10T05:58:52.253Z,21.00
2019-06-10T06:01:25.657Z,21.04
2019-06-10T06:03:58.986Z,21.11
2019-06-10T06:06:34.071Z,21.19
2019-06-10T06:09:08.882Z,21.22
2019-06-10T06:11:43.055Z,21.31
2019-06-10T06:14:16.597Z,21.41
2019-06-10T06:16:49.856Z,21.53
2019-06-10T06:19:23.317Z,21.62
2019-06-10T06:21:56.663Z,21.77
2019-06-10T06:24:29.929Z,21.87
2019-06-10T06:27:03.378Z,22.00
2019-06-10T06:29:38.250Z,22.13
2019-06-10T06:32:13.182Z,22.25
2019-06-10T06:34:47.595Z,22.41
2019-06-10T06:37:23.203Z,22.54
2019-06-10T06:39:56.136Z,22.63
2019-06-10T06:42:29.565Z,22.72
2019-06-10T06:45:03.352Z,22.82
2019-06-10T06:47:37.699Z,22.90
2019-06-10T06:50:13.046Z,23.00
2019-06-10T06:53:16.924Z,23.09
2019-06-10T06:55:23.388Z,23.17
2019-06-10T06:57:56.626Z,23.28
2019-06-10T07:00:52.964Z,23.41
2019-06-10T07:03:12.550Z,23.48
2019-06-10T07:05:48.475Z,23.59
2019-06-10T07:08:22.784Z,23.68
2019-06-10T07:10:58.557Z,23.72
2019-06-10T07:13:37.125Z,23.83
2019-06-10T07:16:09.555Z,23.88
2019-06-10T07:18:49.554Z,23.95
2019-06-10T07:21:17.989Z,24.00
2019-06-10T07:23:52.891Z,24.07
2019-06-10T07:26:26.498Z,24.13
2019-06-10T07:29:02.738Z,24.17
2019-06-10T07:31:36.548Z,24.21
2019-06-10T07:34:10.006Z,24.24
2019-06-10T07:36:45.190Z,24.30
2019-06-10T07:39:18.505Z,24.33
2019-06-10T07:41:52.881Z,24.34
2019-06-10T07:44:26.404Z,24.43
2019-06-10T07:47:02.409Z,24.41
2019-06-10T07:49:35.372Z,24.47
2019-06-10T07:52:18.500Z,24.50
2019-06-10T07:54:45.402Z,24.51
2019-06-10T07:57:18.810Z,24.52
2019-06-10T07:59:52.460Z,24.58
2019-06-10T08:02:25.922Z,24.62
2019-06-10T08:04:59.348Z,24.71
2019-06-10T08:07:33.483Z,24.75
2019-06-10T08:10:13.260Z,24.82
2019-06-10T08:12:48.273Z,24.87
2019-06-10T08:15:22.996Z,24.92
2019-06-10T08:17:57.063Z,25.00
2019-06-10T08:20:47.629Z,25.06
2019-06-10T08:23:23.655Z,25.17
2019-06-10T08:25:57.981Z,25.23
2019-06-10T08:28:33.246Z,25.33
2019-06-10T08:31:06.598Z,25.41
2019-06-10T08:33:42.560Z,25.51
2019-06-10T08:36:15.244Z,25.61
2019-06-10T08:38:49.170Z,25.75
2019-06-10T08:41:23.200Z,25.83
2019-06-10T08:43:56.878Z,25.93
2019-06-10T08:46:32.993Z,26.03
2019-06-10T08:49:07.102Z,26.14
2019-06-10T08:51:45.427Z,26.26
2019-06-10T08:54:16.162Z,26.33
2019-06-10T08:56:50.906Z,26.43
2019-06-10T08:59:25.906Z,26.59
2019-06-10T09:01:59.343Z,26.71
2019-06-10T09:04:33.198Z,26.86
2019-06-10T09:07:06.627Z,26.99
2019-06-10T09:09:40.511Z,27.10
2019-06-10T09:12:28.735Z,27.19
2019-06-10T09:14:52.998Z,27.29
2019-06-10T09:17:25.716Z,27.40
2019-06-10T09:19:59.131Z,27.51
2019-06-10T09:22:32.775Z,27.62
2019-06-10T09:25:07.166Z,27.76
2019-06-10T09:27:44.941Z,27.92
2019-06-10T09:30:18.779Z,28.05
2019-06-10T09:32:56.361Z,28.20
2019-06-10T09:35:28.846Z,28.31
2019-06-10T09:38:03.700Z,28.41
2019-06-10T09:41:00.815Z,28.52
2019-06-10T09:43:28.380Z,28.64
2019-06-10T09:46:03.673Z,28.71
2019-06-10T09:48:37.254Z,28.82
2019-06-10T09:51:13.362Z,28.94
2019-06-10T09:54:01.115Z,29.07
2019-06-10T09:56:29.493Z,29.20
2019-06-10T09:59:17.889Z,29.30
2019-06-10T10:01:58.720Z,29.41
2019-06-10T10:04:32.893Z,29.49
2019-06-10T10:07:34.671Z,29.60
2019-06-10T10:10:23.995Z,29.67
2019-06-10T10:13:28.495Z,29.69
2019-06-10T10:16:08.836Z,29.71
2019-06-10T10:18:48.297Z,29.75
2019-06-10T10:21:36.256Z,29.78
2019-06-10T10:24:15.081Z,29.84
2019-06-10T10:26:56.952Z,29.89
2019-06-10T10:29:27.272Z,29.88
2019-06-10T10:32:02.621Z,29.95
2019-06-10T10:34:36.223Z,29.95
2019-06-10T10:37:12.234Z,29.96
2019-06-10T10:39:49.066Z,29.98
2019-06-10T10:42:23.869Z,29.92
2019-06-10T10:44:59.262Z,29.94
2019-06-10T10:47:33.866Z,29.92
2019-06-10T10:50:13.654Z,29.94
2019-06-10T10:52:46.766Z,29.87
2019-06-10T10:55:33.481Z,29.85
2019-06-10T10:58:45.350Z,29.81
2019-06-10T11:01:23.784Z,29.77
2019-06-10T11:03:59.238Z,29.75
2019-06-10T11:06:32.410Z,29.74
2019-06-10T11:09:12.987Z,29.74
2019-06-10T11:11:48.862Z,29.75
2019-06-10T11:14:23.068Z,29.71
2019-06-10T11:16:58.882Z,29.69
2019-06-10T11:19:32.939Z,29.72
2019-06-10T11:22:06.167Z,29.74
2019-06-10T11:24:42.283Z,29.77
2019-06-10T11:27:14.133Z,29.77
2019-06-10T11:29:48.171Z,29.78
2019-06-10T11:32:21.820Z,29.78
2019-06-10T11:34:56.875Z,29.79
2019-06-10T11:37:30.660Z,29.83
2019-06-10T11:40:04.979Z,29.87
2019-06-10T11:42:38.615Z,29.92
2019-06-10T11:45:12.729Z,30.04
2019-06-10T11:47:46.690Z,30.09
2019-06-10T11:50:23.228Z,30.18
2019-06-10T11:53:00.234Z,30.22
2019-06-10T11:55:33.332Z,30.33
2019-06-10T11:58:07.157Z,30.37
2019-06-10T12:00:42.530Z,30.47
2019-06-10T12:03:15.518Z,30.56
2019-06-10T12:05:49.099Z,30.61
2019-06-10T12:08:23.702Z,30.70
2019-06-10T12:11:01.820Z,30.73
2019-06-10T12:13:34.667Z,30.84
2019-06-10T12:18:44.511Z,30.96
2019-06-10T12:21:17.811Z,31.06
2019-06-10T12:23:54.809Z,31.06
2019-06-10T12:26:26.179Z,31.12
2019-06-10T12:29:01.710Z,31.18
2019-06-10T12:31:34.928Z,31.21
2019-06-10T12:34:08.723Z,31.22
2019-06-10T12:36:41.849Z,31.26
2019-06-10T12:39:58.201Z,31.30
2019-06-10T12:42:33.776Z,31.40
2019-06-10T12:45:12.756Z,31.44
2019-06-10T12:48:16.321Z,31.43
2019-06-10T12:50:55.329Z,31.40
2019-06-10T12:53:26.659Z,31.37
2019-06-10T12:56:02.751Z,31.40
2019-06-10T12:58:34.673Z,31.42
2019-06-10T13:01:08.135Z,31.44
2019-06-10T13:03:43.640Z,31.46
2019-06-10T13:06:18.773Z,31.49
2019-06-10T13:08:56.387Z,31.56
2019-06-10T13:11:29.525Z,31.57
2019-06-10T13:14:05.113Z,31.63
2019-06-10T13:16:37.751Z,31.63
2019-06-10T13:19:13.152Z,31.66
2019-06-10T13:21:45.876Z,31.68
2019-06-10T13:24:22.323Z,31.70
2019-06-10T13:26:56.540Z,31.74
2019-06-10T13:29:38.151Z,31.78
2019-06-10T13:32:12.825Z,31.80
2019-06-10T13:34:48.858Z,31.83
2019-06-10T13:37:22.822Z,31.83
2019-06-10T13:39:57.455Z,31.88
2019-06-10T13:42:35.687Z,31.91
2019-06-10T13:45:08.180Z,31.87
2019-06-10T13:48:01.127Z,31.87
2019-06-10T13:50:38.861Z,31.85
2019-06-10T13:53:13.544Z,31.85
2019-06-10T13:55:47.282Z,31.85
2019-06-10T13:58:23.053Z,31.84
2019-06-10T14:00:56.227Z,31.88
2019-06-10T14:03:32.678Z,31.85
2019-06-10T14:06:25.798Z,31.85
2019-06-10T14:08:43.194Z,31.80
2019-06-10T14:11:18.714Z,31.80
2019-06-10T14:13:54.723Z,31.74
2019-06-10T14:16:28.552Z,31.76
2019-06-10T14:19:05.760Z,31.76
2019-06-10T14:21:39.379Z,31.74
2019-06-10T14:24:15.977Z,31.74
2019-06-10T14:26:48.671Z,31.73
2019-06-10T14:29:22.356Z,31.73
2019-06-10T14:31:56.060Z,31.71
2019-06-10T14:34:29.891Z,31.71
2019-06-10T14:37:03.806Z,31.70
2019-06-10T14:39:38.993Z,31.71
2019-06-10T14:42:15.007Z,31.68
2019-06-10T14:44:53.931Z,31.67
2019-06-10T14:47:28.730Z,31.67
2019-06-10T14:50:05.191Z,31.68
2019-06-10T14:52:39.043Z,31.68
2019-06-10T14:55:16.401Z,31.67
2019-06-10T14:57:48.510Z,31.66
2019-06-10T15:00:23.741Z,31.63
2019-06-10T15:02:57.616Z,31.63
2019-06-10T15:05:32.383Z,31.61
2019-06-10T15:08:07.216Z,31.57
2019-06-10T15:10:43.019Z,31.56
2019-06-10T15:13:16.110Z,31.49
2019-06-10T15:15:49.533Z,31.47
2019-06-10T15:18:23.873Z,31.43
2019-06-10T15:20:57.781Z,31.43
2019-06-10T15:23:32.529Z,31.39
2019-06-10T15:26:09.914Z,31.32
2019-06-10T15:28:43.722Z,31.29
2019-06-10T15:31:19.555Z,31.26
2019-06-10T15:33:53.408Z,31.23
2019-06-10T15:36:27.353Z,31.19
2019-06-10T15:39:01.081Z,31.19
2019-06-10T15:41:36.221Z,31.19
2019-06-10T15:44:09.869Z,31.18
2019-06-10T15:46:43.386Z,31.15
2019-06-10T15:49:19.359Z,31.13
2019-06-10T15:51:52.775Z,31.15
2019-06-10T15:54:26.765Z,31.13
2019-06-10T15:57:00.342Z,31.12
2019-06-10T15:59:34.146Z,31.12
2019-06-10T16:02:13.866Z,31.09
2019-06-10T16:04:46.727Z,31.08
2019-06-10T16:07:25.774Z,31.05
2019-06-10T16:10:03.813Z,31.08
2019-06-10T16:13:03.437Z,31.08
2019-06-10T16:15:43.469Z,31.04
2019-06-10T16:18:20.088Z,31.06
2019-06-10T16:20:54.667Z,31.04
2019-06-10T16:23:29.044Z,31.05
2019-06-10T16:26:29.993Z,31.06
2019-06-10T16:29:15.206Z,31.04
2019-06-10T16:31:52.951Z,31.01
2019-06-10T16:34:41.306Z,30.95
2019-06-10T16:52:15.719Z,30.77
2019-06-10T16:54:58.108Z,30.71
2019-06-10T16:57:33.445Z,30.70
2019-06-10T17:00:18.331Z,30.64
2019-06-10T17:03:15.144Z,30.60
2019-06-10T17:05:53.237Z,30.59
2019-06-10T17:08:28.429Z,30.51
2019-06-10T17:11:03.282Z,30.44
2019-06-10T17:13:37.466Z,30.43
2019-06-10T17:16:12.782Z,30.39
2019-06-10T17:18:47.087Z,30.37
2019-06-10T17:21:24.709Z,30.32
2019-06-10T17:23:58.346Z,30.29
2019-06-10T17:26:37.874Z,30.23
2019-06-10T17:29:11.874Z,30.20
2019-06-10T17:31:49.029Z,30.18
2019-06-10T17:34:25.963Z,30.16
2019-06-10T17:36:59.557Z,30.11
2019-06-10T17:39:34.913Z,30.08
2019-06-10T17:42:12.418Z,30.04
2019-06-10T17:44:52.906Z,29.96
2019-06-10T17:47:34.695Z,29.94
2019-06-10T17:50:12.653Z,29.91
2019-06-10T17:52:46.807Z,29.87
2019-06-10T17:55:24.874Z,29.83
2019-06-10T17:57:57.879Z,29.78
2019-06-10T18:00:36.071Z,29.74
2019-06-10T18:03:13.019Z,29.71
2019-06-10T18:05:48.591Z,29.65
2019-06-10T18:08:24.399Z,29.60
2019-06-10T18:11:03.072Z,29.57
2019-06-10T18:13:38.079Z,29.51
2019-06-10T18:16:14.462Z,29.46
2019-06-10T18:18:48.864Z,29.41
2019-06-10T18:21:24.748Z,29.36
2019-06-10T18:24:05.035Z,29.32
2019-06-10T18:26:39.086Z,29.28
2019-06-10T18:29:18.021Z,29.25
2019-06-10T18:31:54.872Z,29.16
2019-06-10T18:34:37.810Z,29.12
2019-06-10T18:37:09.679Z,29.09
2019-06-10T18:39:43.196Z,29.02
2019-06-10T18:42:19.603Z,28.96
2019-06-10T18:44:53.071Z,28.92
2019-06-10T18:47:27.547Z,28.88
2019-06-10T18:50:01.198Z,28.82
2019-06-10T18:52:34.583Z,28.78
2019-06-10T18:55:09.207Z,28.73
2019-06-10T18:57:42.713Z,28.67
2019-06-10T19:00:17.697Z,28.63
2019-06-10T19:03:08.646Z,28.58
2019-06-10T19:05:26.208Z,28.54
2019-06-10T19:07:59.371Z,28.47
2019-06-10T19:10:35.299Z,28.43
2019-06-10T19:13:07.751Z,28.39
2019-06-10T19:15:42.592Z,28.34
2019-06-10T19:18:17.021Z,28.26
2019-06-10T19:20:52.389Z,28.23
2019-06-10T19:23:25.040Z,28.18
2019-06-10T19:25:58.216Z,28.12
2019-06-10T19:28:33.892Z,28.08
2019-06-10T19:31:06.319Z,28.02
2019-06-10T19:33:41.330Z,27.96
2019-06-10T19:36:15.496Z,27.91
2019-06-10T19:38:48.787Z,27.86
2019-06-10T19:41:25.466Z,27.81
2019-06-10T19:43:59.780Z,27.78
2019-06-10T19:46:34.244Z,27.71
2019-06-10T19:49:07.743Z,27.67
2019-06-10T19:51:46.249Z,27.61
2019-06-10T19:54:19.397Z,27.54
2019-06-10T19:56:52.705Z,27.48
2019-06-10T19:59:25.891Z,27.43
2019-06-10T20:01:59.004Z,27.36
2019-06-10T20:04:33.446Z,27.31
2019-06-10T20:07:07.161Z,27.24
2019-06-10T20:09:43.513Z,27.20
2019-06-10T20:12:15.390Z,27.13
2019-06-10T20:14:49.861Z,27.07
2019-06-10T20:17:23.282Z,27.03
2019-06-10T20:19:56.385Z,26.96
2019-06-10T20:22:31.944Z,26.91
2019-06-10T20:25:04.758Z,26.85
2019-06-10T20:27:37.927Z,26.77
2019-06-10T20:30:24.287Z,26.71
2019-06-10T20:32:51.878Z,26.68
2019-06-10T20:35:23.214Z,26.61
2019-06-10T20:37:57.592Z,26.57
2019-06-10T20:40:32.071Z,26.50
2019-06-10T20:43:05.841Z,26.46
2019-06-10T20:45:39.533Z,26.41
2019-06-10T20:48:12.939Z,26.36
2019-06-10T20:50:47.361Z,26.33
2019-06-10T20:53:21.056Z,26.27
2019-06-10T20:55:57.615Z,26.23
2019-06-10T20:58:29.214Z,26.19
2019-06-10T21:01:04.586Z,26.14
2019-06-10T21:03:39.111Z,26.07
2019-06-10T21:06:14.301Z,26.03
2019-06-10T21:08:49.602Z,25.96
2019-06-10T21:11:23.240Z,25.93
2019-06-10T21:13:56.842Z,25.91
2019-06-10T21:16:32.170Z,25.83
2019-06-10T21:19:05.907Z,25.79
2019-06-10T21:21:40.388Z,25.73
2019-06-10T21:24:14.588Z,25.66
2019-06-10T21:26:49.902Z,25.61
2019-06-10T21:29:24.000Z,25.60
2019-06-10T21:31:57.481Z,25.55
2019-06-10T21:34:32.712Z,25.51
2019-06-10T21:37:05.845Z,25.41
2019-06-10T21:39:39.347Z,25.41
2019-06-10T21:42:12.881Z,25.34
2019-06-10T21:44:46.301Z,25.30
2019-06-10T21:47:19.733Z,25.27
2019-06-10T21:49:54.644Z,25.20
2019-06-10T21:52:28.337Z,25.16
2019-06-10T21:55:02.956Z,25.14
2019-06-10T21:57:36.633Z,25.06
2019-06-10T22:00:14.071Z,25.02
2019-06-10T22:02:51.062Z,25.00
2019-06-10T22:05:24.411Z,24.96
2019-06-10T22:07:57.876Z,24.89
2019-06-10T22:10:33.409Z,24.86
2019-06-10T22:13:07.276Z,24.85
2019-06-10T22:15:42.527Z,24.78
2019-06-10T22:18:15.573Z,24.73
2019-06-10T22:20:48.992Z,24.69
2019-06-10T22:23:23.263Z,24.66
2019-06-10T22:25:57.720Z,24.65
2019-06-10T22:28:32.797Z,26.85
2019-06-10T22:31:19.117Z,27.84
2019-06-10T22:33:43.125Z,27.12
2019-06-10T22:36:16.650Z,26.59
2019-06-10T22:38:50.098Z,26.24
2019-06-10T22:41:25.063Z,26.00
2019-06-10T22:43:59.679Z,25.83
2019-06-10T22:46:33.443Z,25.68
2019-06-10T22:49:07.698Z,25.57
2019-06-10T22:51:42.872Z,25.48
2019-06-10T22:54:15.952Z,25.37
2019-06-10T22:56:49.673Z,25.27
2019-06-10T22:59:23.056Z,25.20
2019-06-10T23:01:57.981Z,25.09
2019-06-10T23:04:33.141Z,24.98
2019-06-10T23:07:06.469Z,24.89
2019-06-10T23:09:39.861Z,24.79
2019-06-10T23:12:13.273Z,24.71
2019-06-10T23:14:46.599Z,24.64
2019-06-10T23:17:21.918Z,24.56
2019-06-10T23:19:56.546Z,24.45
2019-06-10T23:22:30.149Z,26.58
2019-06-10T23:25:03.524Z,27.57
2019-06-10T23:27:36.905Z,26.89
2019-06-10T23:30:11.730Z,26.31
2019-06-10T23:32:45.420Z,25.92
2019-06-10T23:35:18.871Z,25.66
2019-06-10T23:37:55.141Z,25.45
2019-06-10T23:40:27.473Z,25.28
2019-06-10T23:43:01.648Z,25.13
2019-06-10T23:45:35.866Z,24.99
2019-06-10T23:48:09.235Z,24.85
2019-06-10T23:50:43.686Z,24.71
2019-06-10T23:53:17.312Z,24.64
2019-06-10T23:55:51.788Z,24.52
2019-06-10T23:58:25.570Z,24.45
